メインページ
METAR-TAF:

METAR-TAF

空港 :

ヴァヴァウ国際空港

ヴァヴァウ諸島, トンガ

緯度: 18-35-07S, 経度: 173-57-42W, 海抜: 72m

現時点の気象観測

当レポートは23分前の06:00(UTC)に作成
無風
気温 25°C
湿度 94%
気圧 1011 hPa
視程10km以上
高度800ftの雲は散在している
高度1600ftの千切れ雲あり

METAR: NFTV 130600Z 00000KT 9999 SCT008 BKN016 25/24 Q1011

時間: 20:23 (06:23 UTC)

予報

当レポートは1時間0分前の05:23(UTC)に作成
予報は13日の 06時(UTC)から 14日の 06時(UTC)まで有効
南東の風 8kt
視程10km以上
高度800ftの雲は散在している
高度1600ftの千切れ雲あり
確率 40% :
13日の 06時(UTC)から 13日の 24時(UTC)まで一時的に
視程: 3000m
高度1500ftの千切れ雲あり
高度1800ftの雲はほとんどない, 積乱雲.
激しい雷雨, 雨
14日の 00時(UTC)から 14日の 06時(UTC)まで一時的に
視程: 3000m
高度1500ftの千切れ雲あり
高度1700ftの雲はほとんどない, 積乱雲.
激しい雷雨, 雨

TAF: NFTV 130523Z 1306/1406 14008KT 9999 SCT008 BKN016 PROB40 TEMPO 1306/1324 3000 TSRA BKN015 FEW018CB TEMPO 1400/1406 3000 TSRA BKN015 FEW017CB

4,000以上の空港の気象観測と天気予報(METAR報とTAF報)

利用可能な観測所は地図上に黄色い丸と赤い丸で示す。

丸の上にカーソルを重ねると観測所名を参照できる。

次にクリックすると気象観測と天気予報を参照できる。

マップの切り替え:黒色「×」印の緑ボタンをクリックして拡大、「-」印の緑ボタンをクリックして縮小、緑色の三角印をクリックして隣りの地図に切り替え


METAR-TAF: